Time;durP1;ratioP1;P1;durP2;ratioP2;P2;SDS_P1;SDS_P2;PMS_P1;PMS_P2;Temp;Humidity;BMP_temperature;BMP_pressure;BME280_temperature;BME280_humidity;BME280_pressure;Samples;Min_cycle;Max_cycle;Signal;HPM_P1;HPM_P2
2023/04/18 00:01:21;;;;;;;9.15;6.95;;;8.30;99.90;;;;;;4978885;28;20142;-75
2023/04/18 00:03:48;;;;;;;10.30;7.65;;;8.40;99.90;;;;;;4978594;28;20105;-75
2023/04/18 00:06:14;;;;;;;9.50;7.03;;;8.30;99.90;;;;;;4995891;28;20046;-75
2023/04/18 00:08:40;;;;;;;8.30;6.90;;;8.30;99.90;;;;;;4978142;28;20053;-75
2023/04/18 00:11:06;;;;;;;9.98;6.78;;;8.20;99.90;;;;;;4995819;28;20049;-74
2023/04/18 00:13:32;;;;;;;8.18;6.03;;;8.20;99.90;;;;;;4995456;28;20378;-75
2023/04/18 00:15:58;;;;;;;8.98;6.43;;;8.20;99.90;;;;;;4979172;28;20046;-75
2023/04/18 00:18:27;;;;;;;10.65;6.50;;;8.10;99.90;;;;;;4975765;28;20468;-76
2023/04/18 00:20:53;;;;;;;8.50;6.03;;;8.10;99.90;;;;;;4975137;28;20051;-75
2023/04/18 00:23:20;;;;;;;9.07;5.53;;;8.10;99.90;;;;;;4975149;28;20046;-76
2023/04/18 00:25:49;;;;;;;7.05;5.45;;;8.10;99.90;;;;;;4976529;28;20089;-78
2023/04/18 00:28:15;;;;;;;9.30;5.50;;;8.00;99.90;;;;;;4976119;28;20047;-78
2023/04/18 00:30:40;;;;;;;7.90;5.50;;;8.00;99.90;;;;;;4975968;28;20097;-78
2023/04/18 00:33:06;;;;;;;8.65;4.85;;;8.00;99.90;;;;;;4975470;28;20043;-78
2023/04/18 00:35:32;;;;;;;7.55;5.15;;;8.00;99.90;;;;;;4976009;28;20163;-77
2023/04/18 00:37:57;;;;;;;8.65;5.05;;;7.90;99.90;;;;;;4974495;28;20489;-78
2023/04/18 00:40:24;;;;;;;8.25;5.68;;;7.90;99.90;;;;;;4976340;28;20050;-78
2023/04/18 00:42:50;;;;;;;6.93;5.35;;;7.90;99.90;;;;;;4958872;28;20057;-78
2023/04/18 00:45:15;;;;;;;8.23;5.30;;;7.90;99.90;;;;;;4976440;28;20047;-78
2023/04/18 00:47:41;;;;;;;8.45;5.40;;;8.00;99.90;;;;;;4975731;28;20047;-78
2023/04/18 00:50:08;;;;;;;6.82;4.90;;;8.00;99.90;;;;;;4975094;28;20042;-78
2023/04/18 00:52:35;;;;;;;9.13;4.93;;;7.80;99.90;;;;;;4974898;28;20047;-79
2023/04/18 00:55:05;;;;;;;8.35;5.20;;;7.90;99.90;;;;;;4974787;28;20054;-78
2023/04/18 00:57:31;;;;;;;7.55;5.00;;;7.80;99.90;;;;;;4958665;28;20054;-78
2023/04/18 00:59:59;;;;;;;7.80;4.85;;;7.80;99.90;;;;;;4976466;28;20133;-78
2023/04/18 01:02:28;;;;;;;6.03;4.93;;;7.80;99.90;;;;;;4975619;28;20059;-79
2023/04/18 01:04:54;;;;;;;9.75;5.50;;;7.70;99.90;;;;;;4974527;28;20483;-78
2023/04/18 01:07:19;;;;;;;8.15;5.72;;;7.90;99.90;;;;;;4975886;28;20057;-78
2023/04/18 01:09:46;;;;;;;8.02;5.53;;;7.70;99.90;;;;;;4975058;28;20090;-78
2023/04/18 01:12:11;;;;;;;8.70;6.80;;;7.80;99.90;;;;;;4975381;28;20061;-78
2023/04/18 01:14:41;;;;;;;8.13;5.78;;;7.90;99.90;;;;;;4974115;28;20129;-78
2023/04/18 01:17:09;;;;;;;8.63;6.05;;;7.80;99.90;;;;;;4982930;28;20432;-78
2023/04/18 01:19:39;;;;;;;9.38;6.35;;;7.80;99.90;;;;;;4994731;28;20504;-78
2023/04/18 01:22:05;;;;;;;7.18;5.40;;;7.80;99.90;;;;;;4994651;28;20065;-78
2023/04/18 01:24:32;;;;;;;8.38;5.85;;;7.80;99.90;;;;;;4994673;28;20050;-78
2023/04/18 01:26:58;;;;;;;9.35;6.10;;;7.80;99.90;;;;;;4977431;28;20480;-78
2023/04/18 01:29:24;;;;;;;9.35;5.65;;;7.80;99.90;;;;;;4977727;28;20377;-78
2023/04/18 01:31:50;;;;;;;9.68;6.20;;;7.80;99.90;;;;;;4979586;28;20050;-78
2023/04/18 01:34:17;;;;;;;9.35;6.28;;;7.90;99.90;;;;;;4979009;28;20373;-77
2023/04/18 01:36:44;;;;;;;8.65;6.50;;;7.90;99.90;;;;;;4996990;28;20042;-78
2023/04/18 01:39:11;;;;;;;8.55;6.38;;;7.90;99.90;;;;;;4994930;28;20116;-78
2023/04/18 01:41:36;;;;;;;9.57;5.53;;;7.80;99.90;;;;;;4978056;28;20049;-78
2023/04/18 01:44:03;;;;;;;10.27;6.38;;;7.80;99.90;;;;;;4976373;28;20046;-77
2023/04/18 01:46:29;;;;;;;9.10;6.07;;;7.70;99.90;;;;;;4994764;28;20396;-77
2023/04/18 01:48:55;;;;;;;8.75;5.80;;;7.70;99.90;;;;;;4994782;28;20427;-77
2023/04/18 01:51:21;;;;;;;8.82;6.03;;;7.70;99.90;;;;;;4994259;28;20046;-78
2023/04/18 01:53:47;;;;;;;9.90;6.57;;;7.80;99.90;;;;;;4960954;28;20369;-77
2023/04/18 01:56:13;;;;;;;9.10;5.90;;;7.80;99.90;;;;;;4960852;28;20445;-78
2023/04/18 01:58:40;;;;;;;10.20;6.45;;;7.70;99.90;;;;;;4961212;28;20046;-79
2023/04/18 02:01:06;;;;;;;8.98;6.30;;;7.80;99.90;;;;;;4960714;28;20076;-78
2023/04/18 02:03:32;;;;;;;11.75;5.97;;;7.80;99.90;;;;;;4994237;28;20404;-77
2023/04/18 02:05:59;;;;;;;9.02;6.18;;;7.80;99.90;;;;;;4994164;28;20039;-78
2023/04/18 02:08:25;;;;;;;8.65;5.43;;;7.80;99.90;;;;;;4994107;28;20057;-78
2023/04/18 02:10:51;;;;;;;8.95;5.97;;;7.80;99.90;;;;;;4993717;28;20047;-78
2023/04/18 02:13:17;;;;;;;8.13;5.72;;;7.80;99.90;;;;;;4994011;28;20148;-78
2023/04/18 02:15:46;;;;;;;7.70;5.20;;;7.80;99.90;;;;;;4960048;28;20042;-78
2023/04/18 02:18:12;;;;;;;10.48;5.60;;;7.80;99.90;;;;;;4957900;28;20066;-78
2023/04/18 02:20:38;;;;;;;8.05;5.63;;;7.80;99.90;;;;;;4957844;28;20051;-77
2023/04/18 02:23:04;;;;;;;7.43;5.03;;;7.80;99.90;;;;;;4974628;28;20090;-77
2023/04/18 02:25:30;;;;;;;9.77;5.22;;;7.90;99.90;;;;;;4974495;28;20047;-79
2023/04/18 02:27:56;;;;;;;7.30;5.50;;;7.80;99.90;;;;;;4973365;28;20054;-80
2023/04/18 02:30:26;;;;;;;8.85;5.25;;;8.00;99.90;;;;;;4974493;28;20096;-78
2023/04/18 02:32:52;;;;;;;8.35;5.45;;;7.80;99.90;;;;;;4973344;28;20106;-78
2023/04/18 02:35:19;;;;;;;7.72;5.43;;;7.80;99.90;;;;;;4973487;28;20407;-78
2023/04/18 02:37:45;;;;;;;6.93;4.95;;;7.80;99.90;;;;;;4974500;28;20133;-78
2023/04/18 02:40:11;;;;;;;6.93;4.60;;;7.80;99.90;;;;;;4975126;28;20616;-79
2023/04/18 02:42:37;;;;;;;8.10;4.93;;;7.80;99.90;;;;;;4974266;28;20130;-78
2023/04/18 02:45:04;;;;;;;7.35;4.88;;;7.80;99.90;;;;;;4973419;28;20054;-78
2023/04/18 02:47:29;;;;;;;7.90;5.25;;;7.80;99.90;;;;;;4957283;28;20503;-78
2023/04/18 02:49:55;;;;;;;8.18;5.35;;;7.80;99.90;;;;;;4973144;28;20094;-78
2023/04/18 02:52:22;;;;;;;9.75;5.15;;;7.80;99.90;;;;;;4974299;28;20102;-78
2023/04/18 02:54:47;;;;;;;6.80;4.85;;;7.80;99.90;;;;;;4976348;28;20046;-78
2023/04/18 02:57:13;;;;;;;7.05;4.50;;;7.80;99.90;;;;;;4961118;28;20581;-78
2023/04/18 02:59:39;;;;;;;5.20;4.45;;;7.80;99.90;;;;;;4976609;28;20047;-78
2023/04/18 03:02:05;;;;;;;7.75;4.65;;;7.80;99.90;;;;;;4977768;28;20086;-78
2023/04/18 03:04:30;;;;;;;7.65;5.28;;;8.00;99.90;;;;;;4978320;28;20054;-78
2023/04/18 03:06:58;;;;;;;7.45;5.07;;;7.70;99.90;;;;;;4976522;28;20524;-78
2023/04/18 03:09:24;;;;;;;6.57;4.30;;;7.80;99.90;;;;;;4960611;28;20050;-78
2023/04/18 03:11:50;;;;;;;7.03;4.30;;;7.80;99.90;;;;;;4976608;28;20050;-77
2023/04/18 03:14:16;;;;;;;8.18;4.53;;;7.80;99.90;;;;;;4976381;28;20069;-77
2023/04/18 03:16:42;;;;;;;7.57;5.18;;;7.80;99.90;;;;;;4980746;28;20104;-78
2023/04/18 03:19:08;;;;;;;7.45;4.57;;;7.80;99.90;;;;;;4979455;28;20046;-78
2023/04/18 03:21:33;;;;;;;5.38;3.97;;;7.80;99.90;;;;;;4963659;28;20057;-78
2023/04/18 03:23:59;;;;;;;6.50;4.20;;;7.80;99.90;;;;;;4979854;28;20057;-78
2023/04/18 03:26:25;;;;;;;5.95;4.28;;;7.80;99.90;;;;;;4979563;28;20160;-77
2023/04/18 03:28:51;;;;;;;6.22;4.15;;;7.80;99.90;;;;;;4996707;28;20085;-77
2023/04/18 03:31:17;;;;;;;7.70;4.22;;;7.80;99.90;;;;;;4963349;28;20046;-78
2023/04/18 03:33:44;;;;;;;7.28;4.40;;;8.20;99.90;;;;;;4997187;28;20046;-77
2023/04/18 03:36:16;;;;;;;4.82;4.00;;;7.80;99.90;;;;;;4979284;28;20108;-78
2023/04/18 03:38:42;;;;;;;5.03;4.20;;;7.80;99.90;;;;;;4996640;28;20046;-78
2023/04/18 03:41:08;;;;;;;5.10;3.60;;;7.80;99.90;;;;;;4963517;28;20054;-79
2023/04/18 03:43:33;;;;;;;5.30;3.60;;;7.80;99.90;;;;;;4996454;28;20476;-78
2023/04/18 03:45:59;;;;;;;6.30;3.92;;;7.80;99.90;;;;;;4979994;28;20054;-78
2023/04/18 03:48:25;;;;;;;4.78;3.20;;;7.80;99.90;;;;;;4996925;28;20047;-78
2023/04/18 03:50:51;;;;;;;9.02;3.75;;;7.80;99.90;;;;;;4979143;28;20049;-78
2023/04/18 03:53:17;;;;;;;5.82;3.70;;;7.80;99.90;;;;;;4979153;28;20503;-79
2023/04/18 03:55:42;;;;;;;5.97;3.92;;;7.80;99.90;;;;;;4962677;28;20065;-78
2023/04/18 03:58:08;;;;;;;7.45;3.75;;;8.00;99.90;;;;;;4996254;28;20057;-78
2023/04/18 04:00:34;;;;;;;5.18;3.75;;;7.80;99.90;;;;;;4979001;28;20049;-78
2023/04/18 04:03:00;;;;;;;5.13;2.97;;;7.80;99.90;;;;;;4996187;28;20529;-78
2023/04/18 04:05:26;;;;;;;4.68;3.22;;;7.80;99.90;;;;;;4996109;28;20063;-78
2023/04/18 04:07:52;;;;;;;6.03;3.50;;;7.80;99.90;;;;;;4978208;28;20141;-78
2023/04/18 04:10:18;;;;;;;4.88;3.25;;;7.80;99.90;;;;;;4978574;28;20133;-78
2023/04/18 04:12:44;;;;;;;5.13;3.50;;;7.80;99.90;;;;;;4978722;28;20050;-78
2023/04/18 04:15:10;;;;;;;5.03;3.75;;;7.80;99.90;;;;;;4996700;28;20074;-79
2023/04/18 04:17:36;;;;;;;6.78;3.78;;;7.80;99.90;;;;;;4995327;28;20108;-78
2023/04/18 04:20:02;;;;;;;5.72;3.45;;;7.70;99.90;;;;;;4995761;28;20042;-79
2023/04/18 04:22:28;;;;;;;4.97;3.53;;;7.80;99.90;;;;;;4978632;28;20061;-79
2023/04/18 04:24:56;;;;;;;6.95;4.15;;;7.80;99.90;;;;;;4962543;28;20050;-78
2023/04/18 04:27:23;;;;;;;5.78;3.90;;;7.70;99.90;;;;;;4978785;28;20193;-78
2023/04/18 04:29:51;;;;;;;5.97;3.78;;;7.80;99.90;;;;;;4996142;28;20385;-79
2023/04/18 04:32:17;;;;;;;6.00;4.13;;;7.90;99.90;;;;;;4995577;28;20111;-79
2023/04/18 04:34:45;;;;;;;6.18;4.45;;;7.70;99.90;;;;;;4978296;28;20054;-79
2023/04/18 04:37:14;;;;;;;5.80;4.28;;;7.70;99.90;;;;;;4995108;28;20508;-79
2023/04/18 04:39:39;;;;;;;6.30;4.45;;;7.70;99.90;;;;;;4995534;28;20156;-78
2023/04/18 04:42:05;;;;;;;8.48;4.78;;;7.60;99.90;;;;;;4995940;28;20102;-77
2023/04/18 04:44:32;;;;;;;7.53;4.72;;;7.60;99.90;;;;;;4978240;28;20058;-77
2023/04/18 04:46:57;;;;;;;7.43;5.10;;;7.70;99.90;;;;;;4978770;28;20100;-77
2023/04/18 04:49:23;;;;;;;8.77;5.03;;;7.60;99.90;;;;;;4978119;28;20435;-77
2023/04/18 04:51:49;;;;;;;7.07;5.15;;;7.60;99.90;;;;;;4977993;28;20132;-77
2023/04/18 04:54:14;;;;;;;7.18;5.07;;;7.60;99.90;;;;;;4978144;28;20073;-77
2023/04/18 04:56:40;;;;;;;8.20;5.50;;;7.60;99.90;;;;;;4978243;28;20125;-77
2023/04/18 04:59:06;;;;;;;6.72;5.03;;;7.60;99.90;;;;;;4995045;28;20052;-77
2023/04/18 05:01:32;;;;;;;7.63;5.32;;;7.60;99.90;;;;;;4977764;28;20053;-78
2023/04/18 05:03:57;;;;;;;8.55;5.82;;;7.60;99.90;;;;;;4977453;28;20400;-77
2023/04/18 05:06:23;;;;;;;8.60;5.88;;;7.60;99.90;;;;;;4977602;28;20043;-77
2023/04/18 05:08:49;;;;;;;8.98;5.50;;;7.70;99.90;;;;;;4994852;28;20472;-77
2023/04/18 05:11:16;;;;;;;8.93;5.90;;;7.70;99.90;;;;;;4977703;28;20069;-76
2023/04/18 05:13:42;;;;;;;9.15;5.95;;;7.70;99.90;;;;;;4995372;28;20086;-78
2023/04/18 05:16:08;;;;;;;8.80;5.43;;;7.70;99.90;;;;;;4994615;28;20042;-77
2023/04/18 05:18:37;;;;;;;10.18;6.00;;;7.70;99.90;;;;;;4994556;28;20058;-78
2023/04/18 05:21:04;;;;;;;10.05;5.97;;;7.80;99.90;;;;;;4994721;28;20062;-77
2023/04/18 05:23:30;;;;;;;9.05;6.22;;;7.70;99.90;;;;;;4994593;28;20061;-76
2023/04/18 05:25:56;;;;;;;10.20;6.80;;;7.70;99.90;;;;;;4977688;28;20050;-76
2023/04/18 05:28:24;;;;;;;9.43;6.68;;;7.70;99.90;;;;;;4994288;28;20065;-76
2023/04/18 05:30:50;;;;;;;8.93;6.15;;;7.70;99.90;;;;;;4978226;28;20369;-76
2023/04/18 05:33:16;;;;;;;9.00;6.13;;;7.80;99.90;;;;;;4994513;28;20054;-76
2023/04/18 05:35:42;;;;;;;10.23;6.65;;;7.80;99.90;;;;;;4977241;28;20058;-76
2023/04/18 05:38:08;;;;;;;9.57;6.80;;;7.80;99.90;;;;;;4994659;28;20046;-77
2023/04/18 05:40:33;;;;;;;11.73;6.75;;;7.90;99.90;;;;;;4977322;28;20054;-76
2023/04/18 05:42:59;;;;;;;11.73;6.90;;;7.80;99.90;;;;;;4977048;28;20125;-77
2023/04/18 05:45:25;;;;;;;9.95;6.63;;;7.90;99.90;;;;;;4977060;28;20046;-76
2023/04/18 05:47:52;;;;;;;10.55;6.63;;;7.90;99.90;;;;;;4977046;28;20046;-76
2023/04/18 05:50:18;;;;;;;10.25;6.70;;;7.90;99.90;;;;;;4977200;28;20126;-78
2023/04/18 05:52:44;;;;;;;9.00;6.57;;;7.90;99.90;;;;;;4976847;28;20054;-76
2023/04/18 05:55:10;;;;;;;10.05;6.63;;;8.10;99.90;;;;;;4994221;28;20129;-76
2023/04/18 05:57:36;;;;;;;10.90;6.25;;;8.10;99.90;;;;;;4976485;28;20042;-69
2023/04/18 06:00:05;;;;;;;12.48;6.45;;;8.00;99.90;;;;;;4994124;28;20129;-76
2023/04/18 06:02:31;;;;;;;10.35;6.55;;;8.00;99.90;;;;;;4961873;28;20404;-78
2023/04/18 06:04:57;;;;;;;8.50;6.13;;;8.00;99.90;;;;;;4977629;28;20054;-77
2023/04/18 06:07:24;;;;;;;8.32;6.00;;;8.00;99.90;;;;;;4976988;28;20188;-76
2023/04/18 06:09:50;;;;;;;9.68;6.43;;;8.00;99.90;;;;;;4977772;28;20047;-78
2023/04/18 06:12:15;;;;;;;9.93;6.13;;;8.10;99.90;;;;;;4994330;28;20046;-76
2023/04/18 06:14:41;;;;;;;9.55;6.28;;;8.10;99.90;;;;;;4961100;28;20046;-76
2023/04/18 06:17:08;;;;;;;9.73;6.63;;;8.10;99.90;;;;;;4993709;28;20532;-76
2023/04/18 06:19:34;;;;;;;9.07;6.35;;;8.00;99.90;;;;;;4993933;28;20050;-77
2023/04/18 06:22:00;;;;;;;10.10;5.85;;;8.00;99.90;;;;;;4993966;28;20046;-77
2023/04/18 06:24:26;;;;;;;10.43;6.25;;;8.00;99.90;;;;;;4993996;28;20046;-76
2023/04/18 06:26:53;;;;;;;8.65;5.60;;;8.00;99.90;;;;;;4976829;28;20141;-77
2023/04/18 06:29:19;;;;;;;8.57;5.90;;;8.00;99.90;;;;;;4995010;28;20054;-77
2023/04/18 06:31:47;;;;;;;10.15;5.93;;;8.10;99.90;;;;;;4964531;28;20129;-77
2023/04/18 06:34:13;;;;;;;6.90;5.53;;;8.00;99.90;;;;;;4964755;28;20085;-78
2023/04/18 06:36:38;;;;;;;9.38;6.32;;;8.10;99.90;;;;;;4998425;28;20046;-78
2023/04/18 06:39:04;;;;;;;7.97;6.10;;;8.10;99.90;;;;;;4997954;28;20400;-77
2023/04/18 06:41:30;;;;;;;9.55;6.15;;;8.10;99.90;;;;;;4997622;28;20410;-76
2023/04/18 06:43:56;;;;;;;8.23;5.68;;;8.10;99.90;;;;;;4980560;28;20049;-77
2023/04/18 06:46:21;;;;;;;9.02;5.95;;;8.10;99.90;;;;;;4980158;28;20072;-77
2023/04/18 06:48:47;;;;;;;9.13;5.50;;;8.10;99.90;;;;;;4997498;28;20050;-77
2023/04/18 06:51:13;;;;;;;9.25;5.90;;;8.10;99.90;;;;;;4980058;28;20039;-77
2023/04/18 06:53:39;;;;;;;8.73;5.93;;;8.20;99.90;;;;;;4997294;28;20523;-77
2023/04/18 06:56:05;;;;;;;11.48;5.32;;;8.30;99.90;;;;;;4996914;28;20046;-77
2023/04/18 06:58:30;;;;;;;8.48;6.13;;;8.20;99.90;;;;;;4997716;28;20128;-77
2023/04/18 07:00:56;;;;;;;7.78;5.57;;;8.20;99.90;;;;;;4980705;28;20201;-77
2023/04/18 07:03:22;;;;;;;9.00;5.03;;;8.30;99.90;;;;;;4963557;28;20543;-78
2023/04/18 07:05:49;;;;;;;8.52;6.10;;;8.30;99.90;;;;;;4980713;28;20046;-77
2023/04/18 07:08:15;;;;;;;8.93;5.53;;;8.30;99.90;;;;;;4947877;28;20054;-76
2023/04/18 07:10:41;;;;;;;9.50;6.75;;;8.30;99.90;;;;;;4997527;28;20049;-77
2023/04/18 07:13:06;;;;;;;9.95;6.13;;;8.40;99.90;;;;;;4997444;28;20053;-77
2023/04/18 07:15:34;;;;;;;8.25;5.55;;;8.40;99.90;;;;;;4996754;28;20050;-77
2023/04/18 07:18:00;;;;;;;10.68;6.10;;;8.40;99.90;;;;;;4996290;28;20058;-77
2023/04/18 07:20:26;;;;;;;9.15;5.80;;;8.40;99.90;;;;;;4996741;28;20052;-79
2023/04/18 07:22:51;;;;;;;11.50;6.03;;;8.50;99.90;;;;;;4963804;28;20133;-77
2023/04/18 07:25:18;;;;;;;10.35;6.55;;;8.70;99.90;;;;;;4979540;28;20050;-77
2023/04/18 07:27:43;;;;;;;8.18;5.63;;;8.50;99.90;;;;;;4979683;28;20365;-77
2023/04/18 07:30:10;;;;;;;10.77;6.93;;;8.60;99.90;;;;;;4996787;28;20065;-78
2023/04/18 07:32:35;;;;;;;9.18;5.65;;;8.60;99.90;;;;;;4996732;28;20112;-77
2023/04/18 07:35:02;;;;;;;9.05;5.45;;;8.60;99.90;;;;;;4963817;28;20038;-79
2023/04/18 07:37:28;;;;;;;7.63;5.13;;;8.70;99.90;;;;;;4980251;28;20388;-79
2023/04/18 07:39:53;;;;;;;9.52;5.38;;;8.70;99.90;;;;;;4996625;28;20038;-78
2023/04/18 07:42:19;;;;;;;10.13;6.03;;;8.80;99.90;;;;;;4978445;28;20050;-78
2023/04/18 07:44:45;;;;;;;8.27;5.55;;;8.80;99.90;;;;;;4979440;28;20100;-78
2023/04/18 07:47:11;;;;;;;8.88;5.82;;;8.90;99.90;;;;;;4947354;28;20049;-75
2023/04/18 07:49:37;;;;;;;7.68;6.07;;;8.90;99.90;;;;;;4979995;28;20125;-75
2023/04/18 07:52:03;;;;;;;9.07;6.10;;;8.90;99.90;;;;;;4996418;28;20042;-76
2023/04/18 07:54:29;;;;;;;8.70;5.63;;;9.00;99.90;;;;;;4996441;28;20100;-77
2023/04/18 07:56:55;;;;;;;10.48;5.97;;;9.00;99.90;;;;;;4996287;28;20042;-75
2023/04/18 07:59:21;;;;;;;8.63;5.70;;;9.10;99.90;;;;;;4996288;28;20480;-78
2023/04/18 08:01:47;;;;;;;8.77;5.55;;;9.10;99.90;;;;;;4996264;28;20038;-75
2023/04/18 08:04:13;;;;;;;8.20;5.40;;;9.20;99.90;;;;;;4978837;28;20491;-75
2023/04/18 08:06:39;;;;;;;9.77;5.68;;;9.20;99.90;;;;;;4979767;28;20050;-76
2023/04/18 08:09:05;;;;;;;8.30;5.57;;;9.20;99.90;;;;;;4978744;28;20042;-74
2023/04/18 08:11:32;;;;;;;7.22;5.63;;;9.30;99.90;;;;;;4978572;28;20046;-74
2023/04/18 08:13:58;;;;;;;11.48;5.90;;;9.40;99.90;;;;;;4962780;28;20552;-76
2023/04/18 08:16:24;;;;;;;9.55;5.20;;;9.40;99.90;;;;;;4996246;28;20121;-79
2023/04/18 08:18:50;;;;;;;8.88;5.50;;;9.40;99.90;;;;;;4996709;28;20054;-77
2023/04/18 08:21:17;;;;;;;6.32;4.65;;;9.50;99.90;;;;;;4996507;28;20446;-77
2023/04/18 08:23:43;;;;;;;6.65;5.03;;;9.60;99.90;;;;;;4996660;28;20049;-78
2023/04/18 08:26:09;;;;;;;7.15;4.88;;;9.60;99.90;;;;;;4962567;28;20053;-79
2023/04/18 08:28:34;;;;;;;7.30;5.18;;;9.70;99.90;;;;;;4978836;28;20045;-78
2023/04/18 08:31:00;;;;;;;7.35;5.28;;;9.70;99.90;;;;;;4978909;28;20061;-78
2023/04/18 08:33:27;;;;;;;6.72;4.70;;;9.80;99.90;;;;;;4978380;28;20041;-77
2023/04/18 08:35:53;;;;;;;7.80;4.93;;;9.90;99.90;;;;;;4978116;28;20530;-78
2023/04/18 08:38:19;;;;;;;7.25;4.90;;;10.00;99.90;;;;;;4978466;28;20129;-79
2023/04/18 08:40:45;;;;;;;7.60;5.35;;;10.00;99.90;;;;;;4995631;28;20129;-79
2023/04/18 08:43:13;;;;;;;8.60;5.38;;;10.00;99.90;;;;;;4995577;28;20365;-80
2023/04/18 08:45:43;;;;;;;8.07;5.28;;;10.10;99.90;;;;;;4995233;28;20476;-78
2023/04/18 08:48:13;;;;;;;9.13;4.97;;;10.10;99.90;;;;;;4995866;28;20046;-84
2023/04/18 08:50:40;;;;;;;7.13;4.93;;;10.20;99.90;;;;;;4978065;28;20087;-77
2023/04/18 08:53:06;;;;;;;7.25;5.32;;;10.20;99.90;;;;;;4995094;28;20392;-77
2023/04/18 08:55:34;;;;;;;6.35;5.25;;;10.20;99.90;;;;;;4995400;28;20113;-80
2023/04/18 08:58:01;;;;;;;7.43;5.70;;;10.30;99.90;;;;;;4977370;28;20046;-81
2023/04/18 09:00:28;;;;;;;7.60;5.40;;;10.40;99.90;;;;;;4994882;28;20046;-81
2023/04/18 09:02:57;;;;;;;8.55;5.32;;;10.40;99.90;;;;;;4977709;28;20050;-79
2023/04/18 09:05:26;;;;;;;7.57;5.25;;;10.40;99.90;;;;;;4994861;28;20046;-78
2023/04/18 09:07:53;;;;;;;7.47;4.88;;;10.50;99.90;;;;;;4977952;28;20057;-81
2023/04/18 09:10:29;;;;;;;6.95;4.97;;;10.60;99.90;;;;;;4977010;28;20062;-77
2023/04/18 09:12:56;;;;;;;8.15;5.43;;;10.70;99.90;;;;;;4994285;28;20431;-81
2023/04/18 09:15:25;;;;;;;7.97;5.72;;;10.70;99.90;;;;;;4977297;28;20053;-79
2023/04/18 09:17:52;;;;;;;9.90;5.45;;;10.80;99.90;;;;;;4995170;28;20098;-80
2023/04/18 09:20:36;;;;;;;7.35;5.57;;;10.80;99.90;;;;;;4977219;28;20117;-79
2023/04/18 09:23:10;;;;;;;8.90;5.80;;;10.80;99.90;;;;;;4978353;28;20129;-82
2023/04/18 09:25:45;;;;;;;6.78;5.55;;;10.90;99.90;;;;;;4961116;28;20057;-80
2023/04/18 09:28:31;;;;;;;7.07;5.07;;;10.90;99.90;;;;;;4994529;28;20092;-79
2023/04/18 09:31:10;;;;;;;9.15;5.25;;;11.00;99.90;;;;;;4994564;28;20046;-78
2023/04/18 09:33:36;;;;;;;9.20;5.88;;;11.10;99.90;;;;;;4995179;28;20046;-79
2023/04/18 09:36:23;;;;;;;7.95;6.03;;;11.10;99.90;;;;;;4977186;28;20488;-78
2023/04/18 09:38:50;;;;;;;9.77;5.30;;;11.20;99.90;;;;;;4977554;28;20054;-78
2023/04/18 09:41:17;;;;;;;8.60;6.25;;;11.20;99.90;;;;;;4961964;28;20060;-77
2023/04/18 09:43:43;;;;;;;10.82;5.82;;;11.30;99.90;;;;;;4961010;28;20129;-76
2023/04/18 09:46:11;;;;;;;8.52;6.00;;;11.40;99.90;;;;;;4994646;28;20042;-75
2023/04/18 09:48:38;;;;;;;7.75;5.93;;;11.40;99.90;;;;;;4993810;28;20504;-76
2023/04/18 09:51:09;;;;;;;9.88;5.80;;;11.50;99.90;;;;;;4994297;28;20043;-74
2023/04/18 09:53:40;;;;;;;6.97;5.80;;;11.50;99.90;;;;;;4994312;28;20050;-76
2023/04/18 09:56:18;;;;;;;6.55;4.97;;;11.50;99.90;;;;;;4960304;28;20050;-76
2023/04/18 09:58:46;;;;;;;9.38;5.78;;;11.50;99.90;;;;;;4977416;28;20054;-77
2023/04/18 10:01:12;;;;;;;5.55;4.57;;;11.50;99.90;;;;;;4994153;28;20043;-77
2023/04/18 10:03:46;;;;;;;6.45;5.25;;;11.50;99.90;;;;;;4994617;28;20049;-76
2023/04/18 10:06:15;;;;;;;7.95;5.20;;;11.50;99.90;;;;;;5000614;28;20408;-76
2023/04/18 10:08:42;;;;;;;8.30;5.53;;;11.60;99.90;;;;;;4983107;28;20129;-78
2023/04/18 10:11:08;;;;;;;6.72;4.63;;;11.70;99.90;;;;;;4983619;28;20054;-77
2023/04/18 10:13:35;;;;;;;6.95;5.00;;;11.70;99.90;;;;;;4936196;28;20054;-76
2023/04/18 10:16:01;;;;;;;5.78;4.18;;;11.80;99.90;;;;;;5000757;28;20049;-76
2023/04/18 10:18:27;;;;;;;9.00;5.30;;;11.90;99.90;;;;;;5001341;28;20492;-78
2023/04/18 10:21:04;;;;;;;7.90;4.20;;;11.90;99.90;;;;;;4984062;28;20147;-76
2023/04/18 10:23:39;;;;;;;6.55;4.57;;;12.00;99.90;;;;;;5000860;28;20054;-76
2023/04/18 10:26:09;;;;;;;6.70;5.10;;;12.10;99.90;;;;;;5000570;28;20050;-77
2023/04/18 10:28:55;;;;;;;5.18;4.60;;;12.10;99.90;;;;;;5000071;28;20489;-77
2023/04/18 10:31:26;;;;;;;7.32;4.60;;;12.10;99.90;;;;;;5000136;28;20496;-77
2023/04/18 10:33:58;;;;;;;6.53;4.53;;;12.20;99.90;;;;;;4984144;28;20082;-78
2023/04/18 10:36:25;;;;;;;4.55;3.80;;;12.20;99.90;;;;;;5001122;28;20053;-77
2023/04/18 10:38:54;;;;;;;5.60;4.55;;;12.30;99.90;;;;;;4983910;28;20054;-78
2023/04/18 10:41:25;;;;;;;6.20;4.70;;;12.30;99.90;;;;;;4983141;28;20050;-78
2023/04/18 10:44:06;;;;;;;5.95;4.88;;;12.30;99.90;;;;;;5000360;28;20065;-78
2023/04/18 10:46:41;;;;;;;5.40;4.70;;;12.30;99.90;;;;;;5000296;28;20043;-78
2023/04/18 10:49:27;;;;;;;6.95;4.80;;;12.40;99.90;;;;;;5000765;28;20057;-78
2023/04/18 10:51:54;;;;;;;6.38;4.35;;;12.40;99.90;;;;;;5000253;28;20046;-78
2023/04/18 10:54:46;;;;;;;6.93;4.72;;;12.40;99.90;;;;;;4966585;28;20061;-77
2023/04/18 10:57:12;;;;;;;5.78;4.40;;;12.50;99.90;;;;;;4983605;28;20125;-77
2023/04/18 10:59:47;;;;;;;8.25;6.00;;;12.50;99.90;;;;;;4967012;28;20054;-80
2023/04/18 11:02:24;;;;;;;7.35;5.07;;;12.60;99.90;;;;;;5000809;28;20046;-78
2023/04/18 11:04:52;;;;;;;6.05;4.68;;;12.60;99.90;;;;;;5001010;28;20050;-78
2023/04/18 11:07:18;;;;;;;7.90;5.47;;;12.70;99.90;;;;;;4982319;28;20500;-77
2023/04/18 11:09:53;;;;;;;5.70;5.00;;;12.70;99.90;;;;;;4999676;28;20129;-77
2023/04/18 11:12:19;;;;;;;6.43;4.85;;;12.70;99.90;;;;;;5000088;28;20054;-77
2023/04/18 11:14:47;;;;;;;5.32;4.70;;;12.70;99.90;;;;;;4982770;28;20054;-72
2023/04/18 11:17:33;;;;;;;7.30;5.35;;;12.80;99.90;;;;;;4996567;28;20138;-78
2023/04/18 11:20:13;;;;;;;6.30;4.50;;;12.80;99.90;;;;;;4964520;28;20061;-80
2023/04/18 11:22:54;;;;;;;4.68;3.92;;;12.90;99.90;;;;;;4979790;28;20058;-81
2023/04/18 11:25:39;;;;;;;6.07;4.07;;;12.80;99.90;;;;;;4997499;28;20050;-79
2023/04/18 11:28:05;;;;;;;4.82;4.15;;;12.90;99.90;;;;;;4997026;28;20467;-80
2023/04/18 11:30:41;;;;;;;5.00;3.53;;;12.90;99.90;;;;;;4995629;28;20046;-77
2023/04/18 11:33:11;;;;;;;3.20;2.90;;;13.00;99.90;;;;;;4979570;28;20038;-77
2023/04/18 11:35:38;;;;;;;3.47;3.00;;;13.00;99.90;;;;;;4963027;28;20051;-77
2023/04/18 11:38:05;;;;;;;3.53;2.83;;;13.10;99.90;;;;;;4980061;28;20109;-77
2023/04/18 11:40:30;;;;;;;4.22;2.75;;;13.10;99.90;;;;;;4996278;28;20054;-81
2023/04/18 11:43:01;;;;;;;5.97;3.40;;;13.20;99.90;;;;;;4979915;28;20453;-76
2023/04/18 11:45:27;;;;;;;4.15;3.25;;;13.20;99.90;;;;;;4997281;28;20043;-78
2023/04/18 11:47:57;;;;;;;3.28;2.97;;;13.30;99.90;;;;;;4947710;28;20047;-77
2023/04/18 11:50:24;;;;;;;3.50;2.90;;;13.30;99.90;;;;;;4996667;28;20190;-76
2023/04/18 11:52:51;;;;;;;3.70;3.05;;;13.40;99.90;;;;;;4979021;28;20061;-76
2023/04/18 11:55:25;;;;;;;4.55;2.92;;;13.40;99.90;;;;;;4978843;28;20129;-76
2023/04/18 11:57:57;;;;;;;3.45;2.95;;;13.40;99.90;;;;;;4995992;28;20047;-76
2023/04/18 12:00:42;;;;;;;3.63;2.80;;;13.30;99.90;;;;;;4979094;28;20101;-76
2023/04/18 12:03:15;;;;;;;3.83;2.80;;;13.40;99.90;;;;;;4996610;28;20042;-77
2023/04/18 12:05:41;;;;;;;3.90;2.80;;;13.50;99.90;;;;;;4996045;28;20050;-77
2023/04/18 12:08:18;;;;;;;3.60;2.28;;;13.70;99.90;;;;;;4978632;28;20065;-76
2023/04/18 12:10:50;;;;;;;3.05;2.22;;;13.70;99.90;;;;;;4995828;28;20068;-76
2023/04/18 12:13:16;;;;;;;3.35;2.00;;;13.80;99.90;;;;;;4995911;28;20042;-77
2023/04/18 12:15:44;;;;;;;2.65;2.20;;;13.90;99.90;;;;;;4996311;28;20125;-77
2023/04/18 12:18:11;;;;;;;3.60;2.30;;;14.00;99.90;;;;;;4975362;28;20066;-79
2023/04/18 12:20:44;;;;;;;2.72;2.33;;;14.00;99.90;;;;;;4975182;28;20054;-73
2023/04/18 12:23:28;;;;;;;;;;;14.00;99.90;;;;;;4977713;28;20051;-79
2023/04/18 12:26:11;;;;;;;4.10;2.05;;;14.00;99.90;;;;;;4977190;28;20292;-78
2023/04/18 12:28:37;;;;;;;2.85;2.38;;;14.10;99.90;;;;;;4975864;28;20130;-80
2023/04/18 12:31:06;;;;;;;3.17;2.33;;;14.00;99.90;;;;;;4976276;28;20133;-79
2023/04/18 12:33:33;;;;;;;4.43;2.35;;;13.90;99.90;;;;;;4974969;28;20050;-78
2023/04/18 12:35:59;;;;;;;2.72;2.20;;;13.90;99.90;;;;;;4976649;28;20047;-77
2023/04/18 12:38:24;;;;;;;3.80;2.47;;;13.80;99.90;;;;;;4974933;28;20042;-77
2023/04/18 12:40:51;;;;;;;3.65;2.28;;;13.90;99.90;;;;;;4974899;28;20047;-79
2023/04/18 12:43:17;;;;;;;3.85;2.72;;;14.00;99.90;;;;;;4975970;28;20094;-79
2023/04/18 12:45:44;;;;;;;2.85;2.38;;;14.00;99.90;;;;;;4976029;28;20046;-77
2023/04/18 12:48:10;;;;;;;3.58;2.53;;;14.00;99.90;;;;;;4975581;28;20567;-79
2023/04/18 12:50:36;;;;;;;4.65;3.35;;;14.00;99.90;;;;;;4975737;28;20050;-79
2023/04/18 12:53:02;;;;;;;6.32;3.22;;;14.10;99.90;;;;;;4974796;28;20141;-80
2023/04/18 12:55:28;;;;;;;5.20;3.33;;;14.20;99.90;;;;;;4976332;28;20046;-78